Grand Island, California
Current Conditions -  °F | °C
As of 11:30 PM on Sunday 21 Dec 2014 (Local Time) from KSUU Reporting Station
Haze Haze  
Wind Chill: 55°   Ceiling: 1300
Heat Index: 55°   Visibility: 6mi
Dew Point: 54°   Wind: 7mph
Humidity: 94%   Direction: 320°NW
Pressure: 30.27"   Gusts: NA
Location:  38.2298°N, 121.579°W
Report Text: KSUU 220730Z 32006KT 6SM BR SCT005 BKN013 13/12 A3027 RMK CIG 005V013 $
Loading
Personal Weather Stations






























Interactive Weather Map New forecast layout! Learn more

10-Day Weather Forecast

Advertisements
Track Severe Weather on mobile